createdAt,value
2018-11-14T00:00:28.549Z,3.10
2018-11-14T00:02:56.138Z,3.40
2018-11-14T00:05:23.136Z,3.10
2018-11-14T00:07:50.119Z,3.27
2018-11-14T00:10:17.826Z,3.50
2018-11-14T00:12:44.461Z,3.60
2018-11-14T00:15:13.113Z,2.83
2018-11-14T00:17:41.019Z,2.53
2018-11-14T00:20:09.088Z,3.10
2018-11-14T00:22:36.093Z,3.43
2018-11-14T00:25:03.424Z,4.63
2018-11-14T00:27:30.393Z,2.63
2018-11-14T00:29:57.401Z,2.93
2018-11-14T00:32:24.518Z,3.50
2018-11-14T00:34:51.619Z,4.93
2018-11-14T00:37:18.535Z,4.07
2018-11-14T00:39:45.515Z,3.07
2018-11-14T00:42:12.567Z,3.33
2018-11-14T00:44:39.535Z,3.50
2018-11-14T00:47:06.361Z,2.70
2018-11-14T00:49:33.405Z,3.80
2018-11-14T00:52:00.623Z,3.13
2018-11-14T00:54:27.676Z,3.37
2018-11-14T00:56:54.657Z,3.07
2018-11-14T00:59:21.616Z,3.43
2018-11-14T01:01:48.648Z,3.50
2018-11-14T01:04:15.611Z,3.00
2018-11-14T01:06:42.705Z,2.93
2018-11-14T01:09:11.224Z,3.17
2018-11-14T01:11:38.240Z,3.90
2018-11-14T01:14:05.897Z,3.03
2018-11-14T01:16:32.949Z,2.50
2018-11-14T01:18:59.941Z,3.07
2018-11-14T01:21:27.097Z,3.00
2018-11-14T01:23:54.138Z,3.30
2018-11-14T01:26:21.159Z,3.03
2018-11-14T01:28:48.137Z,3.30
2018-11-14T01:31:15.134Z,2.97
2018-11-14T01:33:42.202Z,3.80
2018-11-14T01:36:09.240Z,3.43
2018-11-14T01:38:36.252Z,3.17
2018-11-14T01:41:03.532Z,3.50
2018-11-14T01:43:30.510Z,2.90
2018-11-14T01:45:57.606Z,3.00
2018-11-14T01:48:24.577Z,3.47
2018-11-14T01:50:51.565Z,3.23
2018-11-14T01:53:18.544Z,2.70
2018-11-14T01:55:45.553Z,3.60
2018-11-14T01:58:12.557Z,3.43
2018-11-14T02:00:39.526Z,3.00
2018-11-14T02:03:06.490Z,3.17
2018-11-14T02:05:33.745Z,2.63
2018-11-14T02:08:00.741Z,2.80
2018-11-14T02:10:27.701Z,3.23
2018-11-14T02:12:54.726Z,3.10
2018-11-14T02:15:22.631Z,3.50
2018-11-14T02:17:49.728Z,3.03
2018-11-14T02:20:16.693Z,2.80
2018-11-14T02:22:44.282Z,3.20
2018-11-14T02:25:11.845Z,3.47
2018-11-14T02:27:39.089Z,3.30
2018-11-14T02:30:12.408Z,3.40
2018-11-14T02:32:39.491Z,2.63
2018-11-14T02:35:06.845Z,4.03
2018-11-14T02:37:33.951Z,2.57
2018-11-14T02:40:00.947Z,3.37
2018-11-14T02:42:27.938Z,2.93
2018-11-14T02:44:55.181Z,3.73
2018-11-14T02:47:22.173Z,2.40
2018-11-14T02:49:49.135Z,3.10
2018-11-14T02:52:16.096Z,2.90
2018-11-14T02:54:43.061Z,2.80
2018-11-14T02:57:10.104Z,3.00
2018-11-14T02:59:37.068Z,3.23
2018-11-14T03:02:04.879Z,2.90
2018-11-14T03:04:31.818Z,3.17
2018-11-14T03:06:58.832Z,3.20
2018-11-14T03:09:25.792Z,3.10
2018-11-14T03:11:52.744Z,3.60
2018-11-14T03:14:19.738Z,3.53
2018-11-14T03:16:46.680Z,3.53
2018-11-14T03:19:13.598Z,4.17
2018-11-14T03:21:40.600Z,3.83
2018-11-14T03:24:07.576Z,4.13
2018-11-14T03:26:34.535Z,4.33
2018-11-14T03:29:01.598Z,3.27
2018-11-14T03:31:28.590Z,4.30
2018-11-14T03:33:55.633Z,3.43
2018-11-14T03:36:22.610Z,4.53
2018-11-14T03:38:49.647Z,3.67
2018-11-14T03:41:16.666Z,3.87
2018-11-14T03:43:44.013Z,3.67
2018-11-14T03:46:10.981Z,3.80
2018-11-14T03:48:37.952Z,4.17
2018-11-14T03:51:04.995Z,3.93
2018-11-14T03:53:32.043Z,3.57
2018-11-14T03:55:58.969Z,4.13
2018-11-14T03:58:25.986Z,4.37
2018-11-14T04:00:52.931Z,4.13
2018-11-14T04:03:19.994Z,4.33
2018-11-14T04:05:46.975Z,4.33
2018-11-14T04:08:13.988Z,3.73
2018-11-14T04:10:40.998Z,4.07
2018-11-14T04:13:07.934Z,4.00
2018-11-14T04:15:34.879Z,4.30
2018-11-14T04:18:01.813Z,4.03
2018-11-14T04:20:28.773Z,3.87
2018-11-14T04:22:55.738Z,4.07
2018-11-14T04:25:22.698Z,4.20
2018-11-14T04:27:49.660Z,3.80
2018-11-14T04:30:18.947Z,4.03
2018-11-14T04:32:45.921Z,3.90
2018-11-14T04:35:14.064Z,4.53
2018-11-14T04:37:41.057Z,4.17
2018-11-14T04:40:10.327Z,3.80
2018-11-14T04:42:37.493Z,4.10
2018-11-14T04:45:05.625Z,4.93
2018-11-14T04:47:32.597Z,3.37
2018-11-14T04:49:59.556Z,3.80
2018-11-14T04:52:26.505Z,4.37
2018-11-14T04:54:53.484Z,4.20
2018-11-14T04:57:20.427Z,3.53
2018-11-14T04:59:47.365Z,3.50
2018-11-14T05:02:14.394Z,3.77
2018-11-14T05:04:41.345Z,3.30
2018-11-14T05:07:08.311Z,4.43
2018-11-14T05:09:35.288Z,3.97
2018-11-14T05:12:02.263Z,4.30
2018-11-14T05:14:29.201Z,4.23
2018-11-14T05:16:56.183Z,4.50
2018-11-14T05:19:23.134Z,3.60
2018-11-14T05:21:50.093Z,3.93
2018-11-14T05:24:17.043Z,3.90
2018-11-14T05:26:44.020Z,3.60
2018-11-14T05:29:11.010Z,4.57
2018-11-14T05:31:38.083Z,3.87
2018-11-14T05:34:05.263Z,4.57
2018-11-14T05:36:32.268Z,3.77
2018-11-14T05:38:59.219Z,3.77
2018-11-14T05:41:26.174Z,3.80
2018-11-14T05:43:53.151Z,3.87
2018-11-14T05:46:20.119Z,4.10
2018-11-14T05:48:47.061Z,4.27
2018-11-14T05:51:14.035Z,4.17
2018-11-14T05:53:40.989Z,4.43
2018-11-14T05:56:07.942Z,5.13
2018-11-14T05:58:34.932Z,4.43
2018-11-14T06:01:02.031Z,3.50
2018-11-14T06:03:29.095Z,3.20
2018-11-14T06:05:56.084Z,3.27
2018-11-14T06:08:23.022Z,3.73
2018-11-14T06:10:50.069Z,3.90
2018-11-14T06:13:17.024Z,3.93
2018-11-14T06:15:43.965Z,4.70
2018-11-14T06:18:10.918Z,4.67
2018-11-14T06:20:37.891Z,3.73
2018-11-14T06:23:04.938Z,4.47
2018-11-14T06:25:33.170Z,3.83
2018-11-14T06:28:01.406Z,3.77
2018-11-14T06:30:28.546Z,3.73
2018-11-14T06:32:56.118Z,3.70
2018-11-14T06:35:23.378Z,4.40
2018-11-14T06:37:51.134Z,4.17
2018-11-14T06:40:18.224Z,4.40
2018-11-14T06:42:45.184Z,3.60
2018-11-14T06:45:13.635Z,4.37
2018-11-14T06:47:41.795Z,4.50
2018-11-14T06:50:09.489Z,4.03
2018-11-14T06:52:36.697Z,3.87
2018-11-14T06:55:05.107Z,4.37
2018-11-14T06:57:32.130Z,3.47
2018-11-14T06:59:59.145Z,4.70
2018-11-14T07:02:27.321Z,4.33
2018-11-14T07:04:53.170Z,4.10
2018-11-14T07:07:20.116Z,4.57
2018-11-14T07:09:47.104Z,4.33
2018-11-14T07:12:14.059Z,4.93
2018-11-14T07:14:41.006Z,4.00
2018-11-14T07:17:07.954Z,3.87
2018-11-14T07:19:34.913Z,4.13
2018-11-14T07:22:01.918Z,4.20
2018-11-14T07:24:28.895Z,4.10
2018-11-14T07:26:55.814Z,4.10
2018-11-14T07:29:22.992Z,4.70
2018-11-14T07:31:49.981Z,4.57
2018-11-14T07:34:17.244Z,4.30
2018-11-14T07:36:44.219Z,4.00
2018-11-14T07:39:11.174Z,4.07
2018-11-14T07:41:39.304Z,4.53
2018-11-14T07:44:06.546Z,3.80
2018-11-14T07:46:34.014Z,4.03
2018-11-14T07:49:01.010Z,3.60
2018-11-14T07:51:28.029Z,3.57
2018-11-14T07:53:55.061Z,4.07
2018-11-14T07:56:22.019Z,4.57
2018-11-14T07:58:49.069Z,4.07
2018-11-14T08:01:16.142Z,3.53
2018-11-14T08:03:43.402Z,4.17
2018-11-14T08:06:10.407Z,2.90
2018-11-14T08:08:37.442Z,3.77
2018-11-14T08:11:05.135Z,3.50
2018-11-14T08:13:33.449Z,3.30
2018-11-14T08:16:01.001Z,4.03
2018-11-14T08:18:27.976Z,3.60
2018-11-14T08:20:55.767Z,3.80
2018-11-14T08:23:22.720Z,4.23
2018-11-14T08:25:49.702Z,4.63
2018-11-14T08:28:16.650Z,4.03
2018-11-14T08:30:44.234Z,3.83
2018-11-14T08:33:11.104Z,4.73
2018-11-14T08:35:38.063Z,3.33
2018-11-14T08:38:04.998Z,3.93
2018-11-14T08:40:31.951Z,3.27
2018-11-14T08:42:59.201Z,3.10
2018-11-14T08:45:26.133Z,3.70
2018-11-14T08:47:53.129Z,4.13
2018-11-14T08:50:20.175Z,4.03
2018-11-14T08:52:47.060Z,3.77
2018-11-14T08:55:14.667Z,3.37
2018-11-14T08:57:42.872Z,2.93
2018-11-14T09:00:12.472Z,3.40
2018-11-14T09:02:39.410Z,3.23
2018-11-14T09:05:06.908Z,3.60
2018-11-14T09:07:34.029Z,3.40
2018-11-14T09:10:00.966Z,3.60
2018-11-14T09:12:28.042Z,3.53
2018-11-14T09:14:55.139Z,2.83
2018-11-14T09:17:22.110Z,3.70
2018-11-14T09:19:49.021Z,3.27
2018-11-14T09:22:16.039Z,3.27
2018-11-14T09:24:43.057Z,2.80
2018-11-14T09:27:10.039Z,3.07
2018-11-14T09:29:37.006Z,3.23
2018-11-14T09:32:03.958Z,3.10
2018-11-14T09:34:31.332Z,2.93
2018-11-14T09:36:58.242Z,2.90
2018-11-14T09:39:25.230Z,2.20
2018-11-14T09:41:52.180Z,2.60
2018-11-14T09:44:19.131Z,2.60
2018-11-14T09:46:46.121Z,3.20
2018-11-14T09:49:13.187Z,3.00
2018-11-14T09:51:40.105Z,3.27
2018-11-14T09:54:07.076Z,3.73
2018-11-14T09:56:34.043Z,3.50
2018-11-14T09:59:01.041Z,3.23
2018-11-14T10:01:28.003Z,3.33
2018-11-14T10:03:54.981Z,3.53
2018-11-14T10:06:21.942Z,2.97
2018-11-14T10:08:49.007Z,2.93
2018-11-14T10:11:15.915Z,3.77
2018-11-14T10:13:43.148Z,2.90
2018-11-14T10:16:10.096Z,2.63
2018-11-14T10:18:37.039Z,3.40
2018-11-14T10:21:04.821Z,3.20
2018-11-14T10:23:31.921Z,3.30
2018-11-14T10:25:58.885Z,3.60
2018-11-14T10:28:25.823Z,3.10
2018-11-14T10:30:52.806Z,3.20
2018-11-14T10:33:19.750Z,2.93
2018-11-14T10:35:46.725Z,3.27
2018-11-14T10:38:13.671Z,3.20
2018-11-14T10:40:40.614Z,3.13
2018-11-14T10:43:07.670Z,3.20
2018-11-14T10:45:34.531Z,3.23
2018-11-14T10:48:01.498Z,3.40
2018-11-14T10:50:28.474Z,2.77
2018-11-14T10:52:55.489Z,2.53
2018-11-14T10:55:22.854Z,2.60
2018-11-14T10:57:50.093Z,2.73
2018-11-14T11:00:27.144Z,2.43
2018-11-14T11:02:58.838Z,2.50
2018-11-14T11:05:30.393Z,2.43
2018-11-14T11:08:02.078Z,2.23
2018-11-14T11:10:33.546Z,2.50
2018-11-14T11:13:05.091Z,1.83
2018-11-14T11:15:37.057Z,2.20
2018-11-14T11:18:06.581Z,1.83
2018-11-14T11:20:33.501Z,2.40
2018-11-14T11:23:00.499Z,2.33
2018-11-14T11:25:27.481Z,2.40
2018-11-14T11:27:54.416Z,2.07
2018-11-14T11:30:21.393Z,1.90
2018-11-14T11:32:48.353Z,2.30
2018-11-14T11:35:15.550Z,1.60
2018-11-14T11:37:42.489Z,2.43
2018-11-14T11:40:09.613Z,2.77
2018-11-14T11:42:36.627Z,2.07
2018-11-14T11:45:04.297Z,1.77
2018-11-14T11:47:31.336Z,1.63
2018-11-14T11:49:58.285Z,2.27
2018-11-14T11:52:25.244Z,2.70
2018-11-14T11:54:52.244Z,2.10
2018-11-14T11:57:19.227Z,1.77
2018-11-14T11:59:46.365Z,1.80
2018-11-14T12:02:13.222Z,1.93
2018-11-14T12:04:40.162Z,1.90
2018-11-14T12:07:07.125Z,1.90
2018-11-14T12:09:34.137Z,2.17
2018-11-14T12:12:01.155Z,2.00
2018-11-14T12:14:28.148Z,1.97
2018-11-14T12:16:55.159Z,2.33
2018-11-14T12:19:22.140Z,1.80
2018-11-14T12:21:49.107Z,2.50
2018-11-14T12:24:16.124Z,2.00
2018-11-14T12:26:43.098Z,2.13
2018-11-14T12:29:10.100Z,2.10
2018-11-14T12:31:37.232Z,2.07
2018-11-14T12:34:04.639Z,1.87
2018-11-14T12:36:31.594Z,1.53
2018-11-14T12:38:58.555Z,2.23
2018-11-14T12:41:25.545Z,1.90
2018-11-14T12:43:52.514Z,2.30
2018-11-14T12:46:19.522Z,2.00
2018-11-14T12:48:46.519Z,1.60
2018-11-14T12:51:13.470Z,1.97
2018-11-14T12:53:40.502Z,1.63
2018-11-14T12:56:07.587Z,1.73
2018-11-14T12:58:34.588Z,1.63
2018-11-14T13:01:01.542Z,1.93
2018-11-14T13:03:28.769Z,1.67
2018-11-14T13:05:55.736Z,1.73
2018-11-14T13:08:22.806Z,1.47
2018-11-14T13:10:49.792Z,1.53
2018-11-14T13:13:16.740Z,1.90
2018-11-14T13:15:43.720Z,1.87
2018-11-14T13:18:10.696Z,1.63
2018-11-14T13:20:37.643Z,1.73
2018-11-14T13:23:04.603Z,1.90
2018-11-14T13:25:31.534Z,1.60
2018-11-14T13:27:58.469Z,1.50
2018-11-14T13:30:25.412Z,1.50
2018-11-14T13:32:52.884Z,1.80
2018-11-14T13:35:20.676Z,1.53
2018-11-14T13:37:48.525Z,1.70
2018-11-14T13:40:15.557Z,1.20
2018-11-14T13:42:42.773Z,1.43
2018-11-14T13:45:11.094Z,1.37
2018-11-14T13:47:38.520Z,1.50
2018-11-14T13:50:08.524Z,1.30
2018-11-14T13:52:35.260Z,1.30
2018-11-14T13:55:02.234Z,1.57
2018-11-14T13:57:33.369Z,1.27
2018-11-14T14:00:00.333Z,1.47
2018-11-14T14:02:27.305Z,1.27
2018-11-14T14:04:54.273Z,1.80
2018-11-14T14:07:21.232Z,1.73
2018-11-14T14:09:48.219Z,1.70
2018-11-14T14:12:15.232Z,1.93
2018-11-14T14:14:42.207Z,1.40
2018-11-14T14:17:09.161Z,1.23
2018-11-14T14:19:36.262Z,1.43
2018-11-14T14:22:03.411Z,1.53
2018-11-14T14:24:30.431Z,1.60
2018-11-14T14:26:57.408Z,1.63
2018-11-14T14:29:24.406Z,1.53
2018-11-14T14:31:51.345Z,1.40
2018-11-14T14:34:18.329Z,2.27
2018-11-14T14:36:45.327Z,1.43
2018-11-14T14:39:12.761Z,2.40
2018-11-14T14:41:39.757Z,1.83
2018-11-14T14:44:06.797Z,1.70
2018-11-14T14:46:33.854Z,1.70
2018-11-14T14:49:00.931Z,2.07
2018-11-14T14:51:27.873Z,2.07
2018-11-14T14:53:54.871Z,1.70
2018-11-14T14:56:23.512Z,1.50
2018-11-14T14:58:50.462Z,1.30
2018-11-14T15:01:17.409Z,1.30
2018-11-14T15:03:44.450Z,0.93
2018-11-14T15:06:11.406Z,1.50
2018-11-14T15:08:38.363Z,1.20
2018-11-14T15:11:05.339Z,1.50
2018-11-14T15:13:32.345Z,1.03
2018-11-14T15:15:59.331Z,1.17
2018-11-14T15:18:26.317Z,1.00
2018-11-14T15:20:53.287Z,1.30
2018-11-14T15:23:20.247Z,1.30
2018-11-14T15:25:47.193Z,1.63
2018-11-14T15:28:14.159Z,1.40
2018-11-14T15:30:41.090Z,1.33
2018-11-14T15:33:08.033Z,1.10
2018-11-14T15:35:35.063Z,1.17
2018-11-14T15:38:02.069Z,1.40
2018-11-14T15:40:29.054Z,1.27
2018-11-14T15:42:56.091Z,1.07
2018-11-14T15:45:25.156Z,1.53
2018-11-14T15:47:52.121Z,1.50
2018-11-14T15:50:20.462Z,1.37
2018-11-14T15:52:48.103Z,1.00
2018-11-14T15:55:16.195Z,0.90
2018-11-14T15:57:43.200Z,0.97
2018-11-14T16:00:16.061Z,1.20
2018-11-14T16:02:43.057Z,1.00
2018-11-14T16:05:12.206Z,0.90
2018-11-14T16:07:40.185Z,1.20
2018-11-14T16:10:08.147Z,1.20
2018-11-14T16:12:36.076Z,1.07
2018-11-14T16:15:03.027Z,0.93
2018-11-14T16:17:30.014Z,1.30
2018-11-14T16:19:57.040Z,1.13
2018-11-14T16:22:24.092Z,1.73
2018-11-14T16:24:51.146Z,1.30
2018-11-14T16:27:18.113Z,2.30
2018-11-14T16:29:45.275Z,1.73
2018-11-14T16:32:12.241Z,3.00
2018-11-14T16:34:39.220Z,1.37
2018-11-14T16:37:06.178Z,2.60
2018-11-14T16:39:33.130Z,3.40
2018-11-14T16:42:07.066Z,2.73
2018-11-14T16:47:53.935Z,4.80
2018-11-14T16:50:26.282Z,5.27
2018-11-14T16:53:03.360Z,4.73
2018-11-14T16:55:30.502Z,3.30
2018-11-14T16:57:57.592Z,3.53
2018-11-14T17:00:25.994Z,3.97
2018-11-14T17:02:53.048Z,4.17
2018-11-14T17:05:20.788Z,4.10
2018-11-14T17:07:47.816Z,3.23
2018-11-14T17:10:16.135Z,2.80
2018-11-14T17:12:44.147Z,3.00
2018-11-14T17:15:12.746Z,3.90
2018-11-14T17:17:39.733Z,5.27
2018-11-14T17:20:07.587Z,5.10
2018-11-14T17:22:34.548Z,4.50
2018-11-14T17:25:01.491Z,5.93
2018-11-14T17:27:28.492Z,5.37
2018-11-14T17:29:55.473Z,6.47
2018-11-14T17:32:27.894Z,6.20
2018-11-14T17:34:54.973Z,7.93
2018-11-14T17:37:21.943Z,6.40
2018-11-14T17:39:48.917Z,6.80
2018-11-14T17:42:15.994Z,6.03
2018-11-14T17:44:42.900Z,5.10
2018-11-14T17:47:09.830Z,4.97
2018-11-14T17:49:36.916Z,4.13
2018-11-14T17:52:03.882Z,4.20
2018-11-14T17:54:30.961Z,4.03
2018-11-14T17:56:57.980Z,4.00
2018-11-14T17:59:24.942Z,4.13
2018-11-14T18:01:51.922Z,4.80
2018-11-14T18:04:18.914Z,4.50
2018-11-14T18:06:45.857Z,3.40
2018-11-14T18:09:13.910Z,3.90
2018-11-14T18:11:41.239Z,3.90
2018-11-14T18:14:08.344Z,4.10
2018-11-14T18:16:35.804Z,3.60
2018-11-14T18:19:02.857Z,5.00
2018-11-14T18:21:29.914Z,4.90
2018-11-14T18:23:56.908Z,4.03
2018-11-14T18:26:25.167Z,3.70
2018-11-14T18:28:52.125Z,4.10
2018-11-14T18:31:19.097Z,3.63
2018-11-14T18:33:46.116Z,4.10
2018-11-14T18:36:13.067Z,3.83
2018-11-14T18:38:40.005Z,3.93
2018-11-14T18:41:07.088Z,3.60
2018-11-14T18:43:34.087Z,4.17
2018-11-14T18:46:01.004Z,4.33
2018-11-14T18:48:27.995Z,4.37
2018-11-14T18:50:54.918Z,4.13
2018-11-14T18:53:21.853Z,3.70
2018-11-14T18:55:48.986Z,3.83
2018-11-14T18:58:15.934Z,3.70
2018-11-14T19:00:42.929Z,3.03
2018-11-14T19:03:10.013Z,4.50
2018-11-14T19:05:36.991Z,3.90
2018-11-14T19:08:04.091Z,4.53
2018-11-14T19:10:32.261Z,5.40
2018-11-14T19:12:59.331Z,4.90
2018-11-14T19:15:27.675Z,5.23
2018-11-14T19:17:54.690Z,6.80
2018-11-14T19:20:22.919Z,5.40
2018-11-14T19:22:50.193Z,5.80
2018-11-14T19:25:18.459Z,4.60
2018-11-14T19:27:46.113Z,5.37
2018-11-14T19:30:15.421Z,5.30
2018-11-14T19:32:45.991Z,6.00
2018-11-14T19:35:13.400Z,5.37
2018-11-14T19:37:41.715Z,4.33
2018-11-14T19:40:11.316Z,6.40
2018-11-14T19:42:38.289Z,5.67
2018-11-14T19:45:07.977Z,4.07
2018-11-14T19:47:34.959Z,4.50
2018-11-14T19:50:01.991Z,5.73
2018-11-14T19:52:28.960Z,5.73
2018-11-14T19:54:55.995Z,5.60
2018-11-14T19:57:22.951Z,6.13
2018-11-14T19:59:49.923Z,5.77
2018-11-14T20:02:17.071Z,5.23
2018-11-14T20:04:43.869Z,6.17
2018-11-14T20:07:10.822Z,6.30
2018-11-14T20:09:37.848Z,6.13
2018-11-14T20:12:04.970Z,5.43
2018-11-14T20:14:31.926Z,5.50
2018-11-14T20:16:59.221Z,4.93
2018-11-14T20:19:26.789Z,4.90
2018-11-14T20:21:53.777Z,6.03
2018-11-14T20:24:20.814Z,5.00
2018-11-14T20:26:47.770Z,4.77
2018-11-14T20:29:14.723Z,4.70
2018-11-14T20:31:41.898Z,3.97
2018-11-14T20:34:08.787Z,4.23
2018-11-14T20:36:35.755Z,4.03
2018-11-14T20:39:04.348Z,4.07
2018-11-14T20:41:31.280Z,4.50
2018-11-14T20:43:58.239Z,5.00
2018-11-14T20:46:25.149Z,4.47
2018-11-14T20:48:52.139Z,5.20
2018-11-14T20:51:19.090Z,4.73
2018-11-14T20:53:46.011Z,5.17
2018-11-14T20:56:13.033Z,5.77
2018-11-14T20:58:39.901Z,6.07
2018-11-14T21:01:06.841Z,5.07
2018-11-14T21:03:33.777Z,5.23
2018-11-14T21:06:00.702Z,3.90
2018-11-14T21:08:27.695Z,5.20
2018-11-14T21:10:54.637Z,4.97
2018-11-14T21:13:21.658Z,4.60
2018-11-14T21:15:50.533Z,4.70
2018-11-14T21:18:17.528Z,3.20
2018-11-14T21:20:44.547Z,3.47
2018-11-14T21:23:11.536Z,3.77
2018-11-14T21:25:38.534Z,3.33
2018-11-14T21:28:05.471Z,3.47
2018-11-14T21:30:32.503Z,3.67
2018-11-14T21:32:59.454Z,3.73
2018-11-14T21:35:29.271Z,3.57
2018-11-14T21:37:58.388Z,3.83
2018-11-14T21:40:25.315Z,3.90
2018-11-14T21:42:52.322Z,3.50
2018-11-14T21:45:21.075Z,3.10
2018-11-14T21:47:52.625Z,3.83
2018-11-14T21:50:20.577Z,3.10
2018-11-14T21:52:47.897Z,3.13
2018-11-14T21:55:14.968Z,3.47
2018-11-14T21:57:42.309Z,3.37
2018-11-14T22:00:11.746Z,3.47
2018-11-14T22:02:39.040Z,3.43
2018-11-14T22:05:06.692Z,3.57
2018-11-14T22:07:33.694Z,3.77
2018-11-14T22:10:00.646Z,3.17
2018-11-14T22:12:27.906Z,3.17
2018-11-14T22:14:54.854Z,3.50
2018-11-14T22:17:21.793Z,3.90
2018-11-14T22:19:48.737Z,3.23
2018-11-14T22:22:15.804Z,3.73
2018-11-14T22:24:42.727Z,4.20
2018-11-14T22:27:09.658Z,3.37
2018-11-14T22:29:36.926Z,3.17
2018-11-14T22:32:04.172Z,3.30
2018-11-14T22:34:31.168Z,3.83
2018-11-14T22:36:58.103Z,3.70
2018-11-14T22:39:25.080Z,3.83
2018-11-14T22:41:52.059Z,4.10
2018-11-14T22:44:19.034Z,3.60
2018-11-14T22:46:45.976Z,3.40
2018-11-14T22:49:12.914Z,3.83
2018-11-14T22:51:39.865Z,3.47
2018-11-14T22:54:06.904Z,3.57
2018-11-14T22:56:33.890Z,3.90
2018-11-14T22:59:00.904Z,3.80
2018-11-14T23:01:27.888Z,3.30
2018-11-14T23:03:54.855Z,3.87
2018-11-14T23:06:21.822Z,3.57
2018-11-14T23:08:48.778Z,3.87
2018-11-14T23:11:15.715Z,3.57
2018-11-14T23:13:42.603Z,3.53
2018-11-14T23:16:09.595Z,3.63
2018-11-14T23:18:36.533Z,3.37
2018-11-14T23:21:03.677Z,3.53
2018-11-14T23:23:30.652Z,4.33
2018-11-14T23:25:57.595Z,3.97
2018-11-14T23:28:24.520Z,3.03
2018-11-14T23:30:51.490Z,3.77
2018-11-14T23:33:18.452Z,3.83
2018-11-14T23:35:45.392Z,4.30
2018-11-14T23:38:12.334Z,4.00
2018-11-14T23:40:39.304Z,3.37
2018-11-14T23:43:06.234Z,3.33
2018-11-14T23:45:33.169Z,3.53
2018-11-14T23:48:00.090Z,3.43
2018-11-14T23:50:28.657Z,3.20
2018-11-14T23:52:56.513Z,3.63
2018-11-14T23:55:24.373Z,4.40
2018-11-14T23:57:51.288Z,3.70
